Time;durP1;ratioP1;P1;durP2;ratioP2;P2;SDS_P1;SDS_P2;PMS_P1;PMS_P2;Temp;Humidity;BMP_temperature;BMP_pressure;BME280_temperature;BME280_humidity;BME280_pressure;Samples;Min_cycle;Max_cycle;Signal;HPM_P1;HPM_P2
2023/10/03 00:00:44;;;;;;;4.90;3.00;;;;;;;15.81;96.57;99651.80;106475;1271;99702;-62
2023/10/03 00:03:33;;;;;;;5.70;3.00;;;;;;;15.84;96.56;99645.09;106520;1272;22545;-62
2023/10/03 00:06:03;;;;;;;5.20;2.60;;;;;;;15.84;96.62;99642.42;106484;1273;99417;-62
2023/10/03 00:08:31;;;;;;;6.90;3.40;;;;;;;15.85;96.68;99638.30;106662;1271;22527;-61
2023/10/03 00:11:00;;;;;;;4.70;3.00;;;;;;;15.86;96.72;99638.96;107014;1269;22584;-62
2023/10/03 00:13:31;;;;;;;6.60;2.60;;;;;;;15.87;96.80;99640.30;106558;1272;101347;-62
2023/10/03 00:16:00;;;;;;;5.60;2.90;;;;;;;15.86;96.80;99641.77;106578;1272;22571;-61
2023/10/03 00:18:29;;;;;;;5.00;2.80;;;;;;;15.84;96.81;99642.25;106838;1269;99218;-62
2023/10/03 00:20:58;;;;;;;5.20;2.60;;;;;;;15.80;96.82;99641.45;106662;1272;22593;-62
2023/10/03 00:23:27;;;;;;;6.20;3.10;;;;;;;15.79;96.95;99639.08;106589;1265;22532;-62
2023/10/03 00:25:59;;;;;;;5.40;2.80;;;;;;;15.80;96.98;99640.78;106572;1274;24322;-62
2023/10/03 00:28:29;;;;;;;5.00;2.50;;;;;;;15.84;97.11;99634.20;106679;1271;22548;-62
2023/10/03 00:30:58;;;;;;;5.40;3.60;;;;;;;15.90;97.33;99631.27;107021;1273;99693;-63
2023/10/03 00:33:27;;;;;;;4.10;2.20;;;;;;;15.95;97.33;99626.20;106491;1271;25351;-62
2023/10/03 00:35:56;;;;;;;3.50;2.50;;;;;;;15.99;97.22;99628.05;107852;1270;100151;-63
2023/10/03 00:38:24;;;;;;;6.00;2.70;;;;;;;15.99;97.26;99627.84;106556;1271;24275;-62
2023/10/03 00:40:55;;;;;;;4.10;2.20;;;;;;;16.01;97.19;99624.40;106515;1270;23523;-62
2023/10/03 00:43:24;;;;;;;5.20;2.90;;;;;;;15.99;96.99;99622.94;107651;1265;100359;-62
2023/10/03 00:45:53;;;;;;;4.10;2.60;;;;;;;15.97;97.06;99616.30;106701;1270;22543;-62
2023/10/03 00:48:22;;;;;;;6.90;2.90;;;;;;;15.93;97.05;99614.61;106538;1271;99977;-63
2023/10/03 00:50:53;;;;;;;4.50;2.60;;;;;;;15.90;96.96;99609.20;106889;1272;25381;-62
2023/10/03 00:53:22;;;;;;;9.50;2.60;;;;;;;15.86;97.09;99602.77;110338;1273;22373;-63
2023/10/03 00:55:56;;;;;;;5.50;2.90;;;;;;;15.84;97.20;99603.59;110278;1270;97875;-62
2023/10/03 00:58:32;;;;;;;5.90;3.10;;;;;;;15.82;97.21;99601.15;110358;1278;22870;-63
2023/10/03 01:01:03;;;;;;;9.20;2.80;;;;;;;15.80;97.23;99598.50;107105;1271;99521;-62
2023/10/03 01:03:37;;;;;;;5.50;3.30;;;;;;;15.76;97.12;99592.75;106712;1271;27548;-62
2023/10/03 01:06:09;;;;;;;5.80;2.70;;;;;;;15.74;97.22;99588.58;107757;1274;100347;-62
2023/10/03 01:08:43;;;;;;;4.30;2.40;;;;;;;15.71;97.26;99586.84;106711;1274;22638;-62
2023/10/03 01:11:20;;;;;;;4.20;2.40;;;;;;;15.67;97.18;99587.26;106702;1275;26523;-62
2023/10/03 01:13:56;;;;;;;5.00;2.70;;;;;;;15.65;97.26;99588.48;106743;1276;99579;-62
2023/10/03 01:16:33;;;;;;;5.50;2.50;;;;;;;15.57;97.06;99588.14;106661;1271;25233;-62
2023/10/03 01:19:14;;;;;;;5.00;2.80;;;;;;;15.51;97.27;99585.27;106439;1272;101361;-62
2023/10/03 01:21:45;;;;;;;12.40;3.50;;;;;;;15.48;97.43;99584.27;106674;1272;22645;-62
2023/10/03 01:24:26;;;;;;;5.70;2.80;;;;;;;15.43;97.43;99579.12;107271;1277;99321;-61
2023/10/03 01:26:55;;;;;;;7.40;3.50;;;;;;;15.37;97.31;99578.09;106733;1272;25433;-62
2023/10/03 01:29:24;;;;;;;5.10;2.90;;;;;;;15.32;97.45;99574.96;106549;1276;25352;-62
2023/10/03 01:31:53;;;;;;;5.40;2.60;;;;;;;15.28;97.48;99569.48;106874;1274;24237;-61
2023/10/03 01:34:22;;;;;;;5.90;3.20;;;;;;;15.22;97.59;99565.67;106479;1273;24244;-62
2023/10/03 01:36:51;;;;;;;6.00;2.90;;;;;;;15.17;97.69;99559.00;106519;1271;100090;-62
2023/10/03 01:39:20;;;;;;;6.40;3.20;;;;;;;15.13;97.75;99558.04;106767;1272;22523;-62
2023/10/03 01:41:48;;;;;;;4.60;2.30;;;;;;;15.09;97.99;99562.05;106777;1276;99254;-62
2023/10/03 01:44:18;;;;;;;6.20;3.30;;;;;;;15.04;98.18;99565.53;106496;1272;24399;-61
2023/10/03 01:46:47;;;;;;;5.10;2.70;;;;;;;14.97;98.20;99556.14;106663;1272;23881;-62
2023/10/03 01:49:16;;;;;;;5.90;3.60;;;;;;;14.94;98.49;99558.10;106609;1272;99696;-62
2023/10/03 01:51:44;;;;;;;4.50;2.40;;;;;;;14.91;98.83;99557.07;106636;1274;22534;-62
2023/10/03 01:54:15;;;;;;;6.60;3.00;;;;;;;14.89;99.06;99554.94;106546;1274;100244;-62
2023/10/03 01:56:44;;;;;;;7.30;3.30;;;;;;;14.86;99.15;99551.14;106596;1270;25497;-61
2023/10/03 01:59:13;;;;;;;7.40;3.30;;;;;;;14.81;99.36;99546.54;106984;1277;23880;-62
2023/10/03 02:01:42;;;;;;;5.50;2.80;;;;;;;14.76;99.26;99538.65;106772;1271;99325;-62
2023/10/03 02:04:11;;;;;;;5.50;2.80;;;;;;;14.71;99.56;99531.63;106799;1273;23212;-62
2023/10/03 02:06:40;;;;;;;7.10;3.10;;;;;;;14.68;99.70;99528.86;106638;1267;100926;-62
2023/10/03 02:09:10;;;;;;;7.00;3.00;;;;;;;14.62;99.68;99528.06;106731;1272;24433;-61
2023/10/03 02:11:38;;;;;;;8.00;4.20;;;;;;;14.57;99.80;99527.52;106422;1273;99408;-62
2023/10/03 02:14:08;;;;;;;6.50;2.90;;;;;;;14.53;100.00;99526.52;106515;1265;23999;-62
2023/10/03 02:16:43;;;;;;;4.90;2.90;;;;;;;14.49;99.98;99528.30;106657;1273;24249;-62
2023/10/03 02:19:12;;;;;;;6.60;3.10;;;;;;;14.46;100.00;99532.06;106720;1272;101421;-62
2023/10/03 02:21:42;;;;;;;7.00;3.10;;;;;;;14.43;100.00;99529.27;106633;1272;25454;-62
2023/10/03 02:24:13;;;;;;;8.00;3.60;;;;;;;14.39;100.00;99518.84;106516;1272;99432;-62
2023/10/03 02:26:42;;;;;;;8.70;3.40;;;;;;;14.37;100.00;99518.30;106598;1274;22572;-63
2023/10/03 02:29:12;;;;;;;5.70;3.40;;;;;;;14.36;100.00;99519.59;106632;1272;25315;-62
2023/10/03 02:31:43;;;;;;;5.40;3.20;;;;;;;14.34;100.00;99518.98;106882;1271;99538;-62
2023/10/03 02:34:12;;;;;;;6.30;3.10;;;;;;;14.32;100.00;99517.92;106675;1272;23185;-63
2023/10/03 02:36:40;;;;;;;5.70;2.90;;;;;;;14.29;100.00;99512.14;106551;1277;99438;-62
2023/10/03 02:39:11;;;;;;;5.50;2.60;;;;;;;14.26;100.00;99505.70;106803;1262;23009;-62
2023/10/03 02:41:40;;;;;;;6.10;3.50;;;;;;;14.26;100.00;99496.80;106461;1276;99523;-62
2023/10/03 02:44:11;;;;;;;5.40;3.00;;;;;;;14.24;100.00;99495.86;106814;1272;25486;-62
2023/10/03 02:46:40;;;;;;;5.50;3.20;;;;;;;14.19;100.00;99494.65;106421;1274;24166;-62
2023/10/03 02:49:10;;;;;;;6.80;2.90;;;;;;;14.15;100.00;99495.42;107187;1273;99892;-63
2023/10/03 02:51:41;;;;;;;4.80;2.80;;;;;;;14.11;100.00;99487.62;106635;1271;24252;-63
2023/10/03 02:54:10;;;;;;;7.90;3.80;;;;;;;14.07;100.00;99487.31;106491;1272;100130;-62
2023/10/03 02:56:39;;;;;;;6.70;3.60;;;;;;;14.07;100.00;99487.00;106684;1275;24402;-63
2023/10/03 02:59:07;;;;;;;7.20;3.00;;;;;;;14.06;100.00;99483.73;106657;1270;25231;-62
2023/10/03 03:01:38;;;;;;;10.10;4.00;;;;;;;14.06;100.00;99477.60;106488;1276;100393;-62
2023/10/03 03:04:06;;;;;;;6.30;3.30;;;;;;;14.06;100.00;99471.27;106590;1272;24352;-62
2023/10/03 03:06:35;;;;;;;7.10;3.30;;;;;;;14.05;100.00;99469.81;106618;1278;99420;-62
2023/10/03 03:09:07;;;;;;;5.80;3.20;;;;;;;14.04;100.00;99466.56;106649;1273;22534;-62
2023/10/03 03:11:47;;;;;;;4.60;2.90;;;;;;;14.02;100.00;99462.44;106624;1272;99947;-63
2023/10/03 03:14:16;;;;;;;11.50;3.00;;;;;;;14.00;100.00;99460.14;106955;1272;24372;-63
2023/10/03 03:16:47;;;;;;;6.70;2.70;;;;;;;13.99;100.00;99455.88;106782;1277;26275;-63
2023/10/03 03:19:16;;;;;;;8.40;3.80;;;;;;;13.98;100.00;99448.23;106547;1273;100423;-63
2023/10/03 03:21:46;;;;;;;6.40;3.70;;;;;;;13.97;100.00;99447.39;106721;1271;24245;-63
2023/10/03 03:24:15;;;;;;;6.80;3.80;;;;;;;13.96;100.00;99439.55;106574;1273;99825;-62
2023/10/03 03:26:47;;;;;;;6.10;3.20;;;;;;;13.96;100.00;99428.23;106635;1271;22635;-63
2023/10/03 03:29:20;;;;;;;6.40;4.10;;;;;;;13.95;100.00;99424.45;106723;1276;22528;-62
2023/10/03 03:31:50;;;;;;;7.00;3.20;;;;;;;13.92;100.00;99422.52;106464;1273;99072;-63
2023/10/03 03:34:21;;;;;;;5.30;2.80;;;;;;;13.88;100.00;99415.63;106485;1257;24670;-63
2023/10/03 03:36:54;;;;;;;6.50;3.20;;;;;;;13.84;100.00;99413.76;106556;1271;99364;-63
2023/10/03 03:39:28;;;;;;;5.70;2.60;;;;;;;13.83;100.00;99405.60;106641;1276;22533;-62
2023/10/03 03:41:58;;;;;;;5.40;2.70;;;;;;;13.84;100.00;99398.57;106600;1273;99394;-63
2023/10/03 03:44:28;;;;;;;6.30;3.00;;;;;;;13.85;100.00;99398.67;106685;1274;23554;-62
2023/10/03 03:46:57;;;;;;;10.00;3.30;;;;;;;13.86;100.00;99393.70;106586;1274;22647;-62
2023/10/03 03:49:25;;;;;;;6.50;3.70;;;;;;;13.84;100.00;99393.68;106524;1271;100023;-62
2023/10/03 03:51:54;;;;;;;7.20;3.30;;;;;;;13.80;100.00;99387.83;106552;1273;24316;-62
2023/10/03 03:54:23;;;;;;;6.30;2.90;;;;;;;13.75;100.00;99381.70;106530;1278;100215;-63
2023/10/03 03:56:51;;;;;;;6.60;3.50;;;;;;;13.71;100.00;99380.88;106635;1273;25330;-62
2023/10/03 03:59:22;;;;;;;6.10;2.60;;;;;;;13.74;100.00;99377.73;106754;1273;22532;-62
2023/10/03 04:01:50;;;;;;;5.10;3.20;;;;;;;13.77;100.00;99377.71;106675;1270;99571;-62
2023/10/03 04:04:20;;;;;;;5.40;3.00;;;;;;;13.77;100.00;99372.81;107027;1271;22530;-62
2023/10/03 04:06:48;;;;;;;9.40;3.60;;;;;;;13.77;100.00;99374.73;106714;1273;99888;-62
2023/10/03 04:09:19;;;;;;;7.10;3.10;;;;;;;13.77;100.00;99371.20;106701;1273;24911;-62
2023/10/03 04:11:47;;;;;;;6.70;3.20;;;;;;;13.77;100.00;99373.46;107037;1271;100098;-62
2023/10/03 04:14:17;;;;;;;5.10;2.70;;;;;;;13.77;100.00;99376.80;106669;1273;22550;-62
2023/10/03 04:16:48;;;;;;;6.50;3.50;;;;;;;13.76;100.00;99370.27;106746;1272;22523;-62
2023/10/03 04:19:16;;;;;;;7.10;3.00;;;;;;;13.75;100.00;99370.48;106506;1276;99797;-63
2023/10/03 04:21:45;;;;;;;6.80;3.60;;;;;;;13.73;100.00;99369.17;106477;1274;22678;-62
2023/10/03 04:24:16;;;;;;;7.80;3.10;;;;;;;13.72;100.00;99369.25;108782;1276;100007;-63
2023/10/03 04:26:44;;;;;;;6.00;3.00;;;;;;;13.72;100.00;99367.71;106758;1277;22670;-62
2023/10/03 04:29:13;;;;;;;7.20;4.70;;;;;;;13.71;100.00;99361.83;106523;1260;25118;-62
2023/10/03 04:31:46;;;;;;;7.30;3.60;;;;;;;13.71;100.00;99363.79;106715;1275;99837;-63
2023/10/03 04:34:19;;;;;;;5.90;3.10;;;;;;;13.71;100.00;99357.81;106659;1272;22638;-62
2023/10/03 04:36:48;;;;;;;4.70;2.90;;;;;;;13.71;100.00;99353.45;106455;1272;100174;-63
2023/10/03 04:39:20;;;;;;;6.50;3.70;;;;;;;13.70;100.00;99354.58;106464;1276;22671;-63
2023/10/03 04:41:48;;;;;;;7.10;3.40;;;;;;;13.69;100.00;99351.27;106554;1267;99413;-62
2023/10/03 04:44:18;;;;;;;6.40;3.50;;;;;;;13.68;100.00;99349.96;106674;1274;25166;-62
2023/10/03 04:46:48;;;;;;;6.90;3.20;;;;;;;13.67;100.00;99348.08;106627;1275;24340;-62
2023/10/03 04:49:17;;;;;;;5.20;2.80;;;;;;;13.66;100.00;99346.38;106425;1273;99288;-62
2023/10/03 04:51:47;;;;;;;5.10;2.80;;;;;;;13.64;100.00;99342.47;106676;1277;25340;-63
2023/10/03 04:54:16;;;;;;;7.00;3.50;;;;;;;13.65;100.00;99341.23;106700;1270;99844;-63
2023/10/03 04:56:48;;;;;;;8.20;3.70;;;;;;;13.64;100.00;99335.48;106879;1278;22653;-63
2023/10/03 04:59:19;;;;;;;6.80;3.60;;;;;;;13.65;100.00;99333.32;106706;1273;22581;-63
2023/10/03 05:01:48;;;;;;;5.40;3.00;;;;;;;13.67;100.00;99323.06;106955;1272;100811;-63
2023/10/03 05:04:17;;;;;;;8.50;3.90;;;;;;;13.70;100.00;99316.42;106687;1276;25422;-59
2023/10/03 05:06:47;;;;;;;8.30;4.00;;;;;;;13.75;100.00;99307.70;106567;1272;99231;-59
2023/10/03 05:09:17;;;;;;;6.40;3.60;;;;;;;13.79;100.00;99299.54;106635;1270;22542;-60
2023/10/03 05:11:50;;;;;;;6.70;3.70;;;;;;;13.86;100.00;99291.88;106470;1274;101215;-60
2023/10/03 05:14:20;;;;;;;8.30;4.00;;;;;;;13.93;100.00;99291.04;107132;1274;22790;-60
2023/10/03 05:16:52;;;;;;;7.70;3.30;;;;;;;13.99;100.00;99288.91;106702;1272;23118;-59
2023/10/03 05:19:21;;;;;;;6.20;3.50;;;;;;;14.04;100.00;99290.81;106598;1273;100098;-59
2023/10/03 05:21:50;;;;;;;6.30;3.40;;;;;;;14.08;100.00;99299.14;106648;1271;22710;-56
2023/10/03 05:24:19;;;;;;;7.40;3.80;;;;;;;14.12;100.00;99299.38;106710;1270;100939;-57
2023/10/03 05:26:49;;;;;;;6.30;3.40;;;;;;;14.16;100.00;99293.21;106593;1271;26566;-57
2023/10/03 05:29:24;;;;;;;7.10;3.20;;;;;;;14.20;100.00;99298.16;106694;1271;26562;-49
2023/10/03 05:32:05;;;;;;;6.00;2.90;;;;;;;14.22;100.00;99297.45;107107;1271;22534;-55
2023/10/03 05:34:34;;;;;;;4.10;2.40;;;;;;;14.26;100.00;99286.85;106829;1273;22536;-58
2023/10/03 05:37:03;;;;;;;5.90;3.00;;;;;;;14.32;100.00;99284.38;106632;1274;99655;-56
2023/10/03 05:39:32;;;;;;;7.70;3.30;;;;;;;14.39;100.00;99284.95;106807;1273;24310;-61
2023/10/03 05:42:01;;;;;;;6.00;3.00;;;;;;;14.44;100.00;99282.81;107535;1274;100825;-61
2023/10/03 05:44:30;;;;;;;6.90;3.40;;;;;;;14.51;100.00;99278.13;106725;1276;25248;-61
2023/10/03 05:46:59;;;;;;;4.00;2.60;;;;;;;14.58;100.00;99276.99;106747;1273;24270;-60
2023/10/03 05:49:28;;;;;;;4.90;2.40;;;;;;;14.65;100.00;99275.26;106548;1271;99841;-61
2023/10/03 05:51:56;;;;;;;3.70;2.10;;;;;;;14.72;100.00;99274.88;106765;1273;25341;-60
2023/10/03 05:54:26;;;;;;;5.40;2.70;;;;;;;14.82;100.00;99276.99;106669;1274;99970;-61
2023/10/03 05:56:55;;;;;;;4.80;2.80;;;;;;;14.91;100.00;99275.66;106865;1274;22539;-58
2023/10/03 05:59:26;;;;;;;7.90;2.90;;;;;;;15.02;100.00;99273.82;110383;1273;22297;-60
2023/10/03 06:01:58;;;;;;;6.40;3.20;;;;;;;15.13;100.00;99272.80;110327;1272;99577;-59
2023/10/03 06:04:27;;;;;;;5.90;3.40;;;;;;;15.25;100.00;99271.94;110256;1273;23507;-61
2023/10/03 06:06:56;;;;;;;8.90;3.10;;;;;;;15.36;100.00;99266.00;109982;1272;99814;-61
2023/10/03 06:09:26;;;;;;;4.00;2.60;;;;;;;15.50;100.00;99261.29;107068;1273;22687;-55
2023/10/03 06:11:55;;;;;;;6.10;3.50;;;;;;;15.66;100.00;99260.68;106477;1271;99977;-56
2023/10/03 06:14:25;;;;;;;4.80;2.80;;;;;;;15.85;100.00;99248.38;105896;1278;1387747;-61
2023/10/03 06:16:54;;;;;;;5.90;3.20;;;;;;;16.05;100.00;99243.30;107028;1271;22879;-66
2023/10/03 06:19:25;;;;;;;6.90;3.50;;;;;;;16.28;100.00;99237.82;106538;1273;99409;-62
2023/10/03 06:21:56;;;;;;;7.00;2.70;;;;;;;16.54;100.00;99231.59;106927;1272;22712;-61
2023/10/03 06:24:39;;;;;;;7.70;3.60;;;;;;;16.79;100.00;99226.38;107149;1271;99869;-61
2023/10/03 06:27:10;;;;;;;7.50;3.90;;;;;;;17.06;100.00;99226.86;107025;1270;25244;-69
2023/10/03 06:29:47;;;;;;;9.30;3.30;;;;;;;17.29;100.00;99221.80;106859;1273;101541;-59
2023/10/03 06:32:15;;;;;;;4.70;3.10;;;;;;;17.48;100.00;99218.65;106863;1273;25341;-58
2023/10/03 06:34:44;;;;;;;4.70;3.00;;;;;;;17.61;100.00;99216.41;106949;1271;22617;-59
2023/10/03 06:37:13;;;;;;;8.20;3.00;;;;;;;17.75;100.00;99206.54;106574;1271;99535;-58
2023/10/03 06:39:42;;;;;;;4.20;2.30;;;;;;;17.91;100.00;99203.77;106705;1268;25292;-58
2023/10/03 06:42:11;;;;;;;5.00;2.40;;;;;;;18.08;100.00;99198.21;106609;1272;100101;-62
2023/10/03 06:44:40;;;;;;;6.20;3.00;;;;;;;18.30;100.00;99193.83;106548;1273;24034;-58
2023/10/03 06:47:10;;;;;;;4.40;2.60;;;;;;;18.50;100.00;99192.55;106693;1273;24336;-60
2023/10/03 06:49:39;;;;;;;5.30;2.80;;;;;;;18.71;100.00;99184.25;106432;1273;99924;-60
2023/10/03 06:52:08;;;;;;;9.20;4.60;;;;;;;18.93;100.00;99178.92;106623;1273;24320;-60
2023/10/03 06:54:38;;;;;;;5.30;3.40;;;;;;;19.25;100.00;99173.52;106626;1273;99281;-60
2023/10/03 06:57:07;;;;;;;6.90;3.40;;;;;;;19.67;100.00;99171.42;106780;1276;25245;-60
2023/10/03 06:59:36;;;;;;;5.50;3.20;;;;;;;20.10;100.00;99169.32;106723;1271;22575;-60
2023/10/03 07:02:05;;;;;;;7.20;2.70;;;;;;;20.58;100.00;99159.40;106967;1276;22631;-59
2023/10/03 07:04:34;;;;;;;4.00;2.40;;;;;;;21.00;100.00;99160.71;107075;1271;24259;-60
2023/10/03 07:07:05;;;;;;;4.30;2.20;;;;;;;21.42;100.00;99154.06;106583;1274;100641;-59
2023/10/03 07:09:34;;;;;;;4.30;2.20;;;;;;;21.82;100.00;99146.61;106627;1276;24342;-60
2023/10/03 07:12:03;;;;;;;5.20;2.70;;;;;;;22.18;100.00;99139.99;106553;1273;100496;-60
2023/10/03 07:14:31;;;;;;;4.40;2.40;;;;;;;22.35;100.00;99141.05;106752;1273;24271;-59
2023/10/03 07:17:00;;;;;;;5.90;2.70;;;;;;;22.32;100.00;99135.36;106560;1276;24222;-61
2023/10/03 07:19:31;;;;;;;4.60;2.80;;;;;;;22.26;99.92;99136.40;106582;1269;99537;-59
2023/10/03 07:22:02;;;;;;;5.20;3.10;;;;;;;22.23;99.61;99130.39;106689;1271;23884;-60
2023/10/03 07:24:31;;;;;;;5.00;2.70;;;;;;;22.19;99.34;99128.08;106506;1273;99099;-60
2023/10/03 07:27:03;;;;;;;4.80;2.50;;;;;;;22.18;98.60;99129.98;106667;1277;22534;-60
2023/10/03 07:29:32;;;;;;;4.90;2.60;;;;;;;22.22;98.57;99129.89;106557;1273;22636;-60
2023/10/03 07:32:01;;;;;;;5.20;2.50;;;;;;;22.34;98.22;99134.51;106551;1270;98885;-60
2023/10/03 07:34:29;;;;;;;5.70;3.10;;;;;;;22.53;97.80;99128.92;106778;1276;25132;-60
2023/10/03 07:36:59;;;;;;;6.70;2.50;;;;;;;22.76;97.72;99125.16;106642;1271;99717;-61
2023/10/03 07:39:27;;;;;;;5.10;2.90;;;;;;;23.12;97.50;99124.02;106641;1265;24330;-60
2023/10/03 07:41:56;;;;;;;6.60;2.60;;;;;;;23.60;97.09;99114.63;109745;1270;99217;-60
2023/10/03 07:44:25;;;;;;;4.90;2.40;;;;;;;24.17;96.45;99103.63;106554;1273;24960;-59
2023/10/03 07:46:54;;;;;;;5.90;2.80;;;;;;;24.65;95.44;99100.09;106689;1276;22560;-60
2023/10/03 07:49:23;;;;;;;8.90;3.40;;;;;;;24.78;94.66;99097.98;107460;1273;99748;-60
2023/10/03 07:51:56;;;;;;;4.10;2.40;;;;;;;24.75;93.86;99092.67;106752;1273;22571;-60
2023/10/03 07:54:26;;;;;;;4.60;2.00;;;;;;;24.89;93.98;99085.55;106838;1256;99147;-60
2023/10/03 07:56:54;;;;;;;4.60;2.40;;;;;;;25.09;93.09;99080.47;106747;1273;25487;-60
2023/10/03 07:59:25;;;;;;;5.60;2.00;;;;;;;25.33;92.48;99075.92;106801;1271;25247;-61
2023/10/03 08:01:54;;;;;;;4.20;2.30;;;;;;;25.58;91.44;99071.66;106476;1271;99585;-60
2023/10/03 08:04:31;;;;;;;4.20;2.40;;;;;;;25.50;90.10;99069.95;106739;1271;25245;-60
2023/10/03 08:07:04;;;;;;;6.20;1.90;;;;;;;25.30;89.98;99061.73;106586;1271;99291;-60
2023/10/03 08:09:34;;;;;;;4.90;2.10;;;;;;;25.04;89.26;99058.32;106494;1271;24250;-61
2023/10/03 08:12:11;;;;;;;11.60;2.30;;;;;;;24.92;88.93;99059.89;106739;1274;99287;-61
2023/10/03 08:14:41;;;;;;;2.70;1.90;;;;;;;25.01;88.57;99055.46;106706;1273;23003;-61
2023/10/03 08:17:11;;;;;;;4.20;2.10;;;;;;;25.17;88.12;99049.24;106697;1274;24455;-61
2023/10/03 08:19:44;;;;;;;4.50;1.90;;;;;;;25.39;88.04;99043.16;106498;1272;99745;-60
2023/10/03 08:22:14;;;;;;;4.70;2.30;;;;;;;25.71;86.99;99041.62;106613;1271;22639;-60
2023/10/03 08:24:43;;;;;;;3.40;2.10;;;;;;;26.12;86.79;99038.48;106416;1274;99169;-60
2023/10/03 08:27:18;;;;;;;3.50;2.10;;;;;;;27.79;87.61;99027.66;106745;1271;22886;-60
2023/10/03 08:29:51;;;;;;;3.00;1.90;;;;;;;29.83;86.85;99015.52;106401;1276;100226;-60
2023/10/03 08:32:20;;;;;;;4.20;1.80;;;;;;;31.09;84.27;98994.45;106481;1273;22545;-60
2023/10/03 08:34:48;;;;;;;4.30;2.20;;;;;;;31.61;82.74;98981.77;106641;1271;24265;-55
2023/10/03 08:37:21;;;;;;;6.10;1.90;;;;;;;32.61;82.29;98974.07;106690;1274;100168;-60
2023/10/03 08:39:52;;;;;;;3.30;2.00;;;;;;;33.87;80.46;98965.38;106855;1271;24271;-61
2023/10/03 08:42:35;;;;;;;4.00;2.10;;;;;;;34.68;78.92;98957.95;106366;1267;99880;-62
2023/10/03 08:45:16;;;;;;;8.40;2.70;;;;;;;35.55;77.42;98950.29;106701;1272;22537;-60
2023/10/03 08:47:50;;;;;;;2.70;1.90;;;;;;;36.02;73.91;98938.89;106547;1275;99869;-57
2023/10/03 08:50:33;;;;;;;6.30;3.00;;;;;;;36.14;72.66;98934.99;106633;1264;22829;-60
2023/10/03 08:53:16;;;;;;;3.10;1.80;;;;;;;36.40;69.61;98917.23;106609;1278;22540;-60
2023/10/03 08:55:46;;;;;;;3.80;2.60;;;;;;;35.29;66.47;98915.00;106434;1273;99059;-60
2023/10/03 08:58:18;;;;;;;5.30;3.10;;;;;;;33.83;64.38;98910.23;106478;1274;24240;-62
2023/10/03 09:00:49;;;;;;;4.50;2.30;;;;;;;33.16;63.61;98905.58;106508;1273;99140;-59
2023/10/03 09:03:18;;;;;;;6.60;3.00;;;;;;;32.76;61.83;98905.83;106572;1271;22580;-61
2023/10/03 09:05:48;;;;;;;3.70;2.00;;;;;;;31.66;60.44;98902.36;106594;1270;99741;-60
2023/10/03 09:08:17;;;;;;;3.90;2.60;;;;;;;31.01;60.08;98900.26;106884;1271;24007;-58
2023/10/03 09:10:53;;;;;;;4.50;2.30;;;;;;;30.77;59.55;98897.29;106444;1272;24329;-61
2023/10/03 09:13:24;;;;;;;4.80;2.30;;;;;;;30.51;58.86;98882.79;106492;1274;100744;-60
2023/10/03 09:16:02;;;;;;;4.90;2.40;;;;;;;30.99;58.28;98877.11;106637;1271;25455;-61
2023/10/03 09:18:40;;;;;;;5.90;3.00;;;;;;;31.12;57.20;98885.70;106436;1271;102493;-61
2023/10/03 09:21:23;;;;;;;4.20;2.50;;;;;;;30.42;56.11;98885.71;106757;1271;22555;-60
2023/10/03 09:24:01;;;;;;;6.00;3.50;;;;;;;30.08;55.84;98873.64;106396;1270;99345;-60
2023/10/03 09:26:46;;;;;;;5.10;2.80;;;;;;;30.39;55.42;98878.57;106695;1271;22612;-60
2023/10/03 09:29:30;;;;;;;;;;;;;;;30.76;54.09;98877.52;106742;1272;22507;-60
2023/10/03 09:32:16;;;;;;;6.30;3.40;;;;;;;30.46;53.39;98871.42;110281;1271;85286;-59
2023/10/03 09:34:48;;;;;;;6.60;2.90;;;;;;;30.46;52.39;98871.27;110240;1272;22379;-60
2023/10/03 09:37:17;;;;;;;6.70;3.70;;;;;;;30.35;52.58;98868.93;108599;1271;99141;-60
2023/10/03 09:39:49;;;;;;;8.30;3.10;;;;;;;30.97;52.64;98856.35;106913;1271;24241;-59
2023/10/03 09:42:23;;;;;;;6.90;4.30;;;;;;;31.33;51.66;98848.20;107074;1264;102275;-58
2023/10/03 09:45:06;;;;;;;9.00;3.60;;;;;;;31.70;51.39;98844.66;106708;1270;25471;-59
2023/10/03 09:47:35;;;;;;;8.00;3.30;;;;;;;32.05;49.58;98835.52;106726;1269;22644;-58
2023/10/03 09:50:09;;;;;;;8.00;4.20;;;;;;;31.65;47.01;98830.20;106594;1271;24231;-58
2023/10/03 09:52:39;;;;;;;8.50;3.50;;;;;;;31.15;46.73;98823.95;106822;1271;24374;-60
2023/10/03 09:55:21;;;;;;;8.60;3.90;;;;;;;30.74;46.27;98815.95;106982;1270;99622;-58
2023/10/03 09:57:54;;;;;;;6.30;3.50;;;;;;;30.56;46.23;98812.03;106870;1270;24247;-61
2023/10/03 10:00:49;;;;;;;6.70;4.10;;;;;;;30.76;46.10;98800.34;106401;1273;99389;-59
2023/10/03 10:03:26;;;;;;;7.50;3.90;;;;;;;30.64;45.08;98797.58;106800;1272;25320;-66
2023/10/03 10:06:23;;;;;;;7.40;3.80;;;;;;;30.24;44.67;98792.76;106519;1270;99789;-65
2023/10/03 10:09:02;;;;;;;6.10;3.50;;;;;;;29.51;44.49;98789.06;106597;1271;24244;-59
2023/10/03 10:11:31;;;;;;;7.70;4.10;;;;;;;29.14;44.55;98781.96;106738;1261;24223;-59
2023/10/03 10:14:21;;;;;;;8.60;3.30;;;;;;;29.32;44.62;98778.08;106826;1271;99493;-61
2023/10/03 10:17:05;;;;;;;10.10;4.10;;;;;;;29.41;44.15;98778.83;106654;1271;22549;-59
2023/10/03 10:20:09;;;;;;;7.50;3.90;;;;;;;29.59;44.48;98772.95;106434;1272;99373;-60
2023/10/03 10:23:35;;;;;;;7.90;4.00;;;;;;;30.60;44.39;98758.98;106731;1271;22523;-59
2023/10/03 10:25:56;;;;;;;6.40;3.50;;;;;;;31.73;44.14;98759.58;106434;1270;99669;-59
2023/10/03 10:28:28;;;;;;;10.40;3.60;;;;;;;32.39;44.06;98761.27;106677;1274;25408;-59
2023/10/03 10:31:16;;;;;;;7.90;3.70;;;;;;;33.11;43.58;98756.39;106755;1270;99838;-60
2023/10/03 10:33:46;;;;;;;7.60;3.70;;;;;;;33.65;42.91;98757.15;108124;1271;22540;-57
2023/10/03 10:36:18;;;;;;;8.60;4.40;;;;;;;33.22;41.99;98747.14;106526;1277;99943;-61
2023/10/03 10:38:49;;;;;;;10.00;5.30;;;;;;;32.28;41.43;98734.41;106880;1274;24742;-57
2023/10/03 10:41:22;;;;;;;6.40;3.90;;;;;;;32.31;41.29;98726.04;106705;1271;22561;-59
2023/10/03 10:44:24;;;;;;;9.10;4.00;;;;;;;33.58;41.36;98713.00;106455;1273;99642;-56
2023/10/03 10:47:05;;;;;;;7.50;3.80;;;;;;;35.09;40.60;98698.77;106358;1275;22614;-55
2023/10/03 10:49:34;;;;;;;7.30;4.10;;;;;;;36.02;39.99;98691.83;106365;1275;99867;-54
2023/10/03 10:52:07;;;;;;;7.00;3.90;;;;;;;36.10;39.41;98695.86;106319;1280;22536;-56
2023/10/03 10:54:41;;;;;;;7.70;4.30;;;;;;;35.96;38.26;98699.70;106234;1275;99835;-55
2023/10/03 10:57:11;;;;;;;9.60;4.50;;;;;;;35.05;37.52;98693.16;106197;1275;25361;-55
2023/10/03 10:59:41;;;;;;;9.20;4.30;;;;;;;34.71;37.11;98687.22;106242;1277;101451;-54
2023/10/03 11:02:20;;;;;;;8.00;4.40;;;;;;;34.78;36.64;98676.60;106269;1275;24602;-55
2023/10/03 11:04:54;;;;;;;7.00;4.20;;;;;;;35.27;36.14;98674.98;106322;1277;22593;-54
2023/10/03 11:07:25;;;;;;;7.10;4.10;;;;;;;34.62;35.37;98674.42;106233;1275;99130;-56
2023/10/03 11:10:04;;;;;;;9.10;4.80;;;;;;;33.63;34.86;98665.40;106208;1280;22582;-54
2023/10/03 11:13:04;;;;;;;8.00;4.80;;;;;;;32.72;34.88;98656.73;106293;1277;99741;-51
2023/10/03 11:15:33;;;;;;;6.70;4.10;;;;;;;32.41;34.89;98645.43;106285;1275;22538;-53
2023/10/03 11:18:02;;;;;;;6.10;4.10;;;;;;;31.95;34.74;98633.02;106286;1277;99505;-51
2023/10/03 11:20:32;;;;;;;7.60;4.30;;;;;;;31.25;34.74;98624.61;106311;1276;22668;-47
2023/10/03 11:23:01;;;;;;;6.50;3.90;;;;;;;30.39;34.36;98627.83;106577;1270;26720;-56
2023/10/03 11:25:30;;;;;;;7.20;3.70;;;;;;;29.50;34.73;98635.42;106583;1271;99657;-56
2023/10/03 11:28:06;;;;;;;8.60;3.60;;;;;;;28.87;34.90;98640.73;106697;1270;25432;-61
2023/10/03 11:30:34;;;;;;;;;;;;;;;28.30;35.06;98628.34;106777;1270;99729;-53
2023/10/03 11:33:04;;;;;;;9.20;4.20;;;;;;;27.87;35.38;98625.10;107042;1271;23013;-55
2023/10/03 11:35:35;;;;;;;5.50;3.60;;;;;;;27.74;35.91;98624.00;106875;1270;25462;-58
2023/10/03 11:38:07;;;;;;;7.10;3.80;;;;;;;27.89;36.17;98622.09;106913;1271;99383;-56
2023/10/03 11:40:49;;;;;;;8.00;3.60;;;;;;;28.25;36.55;98614.52;106728;1273;25260;-56
2023/10/03 11:43:20;;;;;;;6.90;3.70;;;;;;;28.63;36.79;98609.52;106604;1271;100092;-58